Time;durP1;ratioP1;P1;durP2;ratioP2;P2;SDS_P1;SDS_P2;PMS_P1;PMS_P2;Temp;Humidity;BMP_temperature;BMP_pressure;BME280_temperature;BME280_humidity;BME280_pressure;Samples;Min_cycle;Max_cycle;Signal;HPM_P1;HPM_P2
2023/07/14 00:02:04;;;;;;;9.90;5.90;;;;;;;19.40;76.41;99090.00;222376;189;666546;-67
2023/07/14 00:07:16;;;;;;;9.50;6.00;;;;;;;19.28;76.50;99083.23;223496;184;136533;-68
2023/07/14 00:12:19;;;;;;;10.10;6.10;;;;;;;19.28;76.65;99081.85;223621;184;143173;-70
2023/07/14 00:17:22;;;;;;;7.60;6.10;;;;;;;19.30;76.53;99083.44;223574;184;138950;-66
2023/07/14 00:22:26;;;;;;;9.70;6.80;;;;;;;19.26;76.58;99087.64;223705;184;136863;-67
2023/07/14 00:27:29;;;;;;;12.20;6.60;;;;;;;19.23;76.93;99091.27;223702;184;143579;-69
2023/07/14 00:32:32;;;;;;;8.90;6.10;;;;;;;19.15;76.98;99090.47;223627;184;140715;-64
2023/07/14 00:37:36;;;;;;;11.20;6.60;;;;;;;19.08;77.15;99088.41;223600;184;137589;-69
2023/07/14 00:42:39;;;;;;;13.80;6.30;;;;;;;19.07;77.33;99092.14;223678;184;143376;-74
2023/07/14 00:47:43;;;;;;;12.40;7.10;;;;;;;19.02;77.39;99095.67;223585;184;138844;-70
2023/07/14 00:52:48;;;;;;;12.80;7.20;;;;;;;19.00;77.42;99096.27;223620;184;136651;-70
2023/07/14 01:02:23;;;;;;;8.50;6.20;;;;;;;18.92;77.37;99094.95;221850;193;666094;-64
2023/07/14 01:07:38;;;;;;;13.00;7.70;;;;;;;18.87;77.46;99101.60;223605;184;137157;-69
2023/07/14 01:12:51;;;;;;;9.40;7.60;;;;;;;18.74;77.71;99101.70;223550;183;143669;-70
2023/07/14 01:17:55;;;;;;;12.90;7.30;;;;;;;18.59;78.09;99109.83;223664;183;139495;-68
2023/07/14 01:23:23;;;;;;;11.70;6.90;;;;;;;18.52;78.33;99109.91;223715;184;137617;-74
2023/07/14 01:28:27;;;;;;;10.00;7.30;;;;;;;18.49;78.51;99106.95;223676;181;144191;-72
2023/07/14 01:33:30;;;;;;;11.70;7.80;;;;;;;18.42;78.71;99109.41;223701;182;138123;-72
2023/07/14 01:38:34;;;;;;;10.30;6.80;;;;;;;18.38;78.97;99115.77;223805;182;140159;-66
2023/07/14 01:43:38;;;;;;;10.20;7.40;;;;;;;18.33;79.01;99115.61;223724;182;144929;-68
2023/07/14 01:49:01;;;;;;;13.10;8.60;;;;;;;18.33;79.11;99116.19;223730;182;138440;-66
2023/07/14 01:54:21;;;;;;;13.40;9.00;;;;;;;18.26;79.26;99120.30;223783;181;137806;-68
2023/07/14 01:59:30;;;;;;;14.40;8.00;;;;;;;18.20;79.47;99129.09;223731;183;145094;-70
2023/07/14 02:04:37;;;;;;;9.80;7.80;;;;;;;18.19;79.66;99136.27;223674;182;138468;-68
2023/07/14 02:09:42;;;;;;;11.30;8.30;;;;;;;18.24;79.85;99143.08;223706;182;138013;-71
2023/07/14 02:15:03;;;;;;;11.40;8.50;;;;;;;18.28;79.56;99146.63;223724;182;146136;-65
2023/07/14 02:20:13;;;;;;;15.00;8.20;;;;;;;18.29;79.45;99157.91;223755;182;138271;-69
2023/07/14 02:25:18;;;;;;;15.30;8.00;;;;;;;18.29;79.65;99164.32;223571;183;138534;-68
2023/07/14 02:30:23;;;;;;;13.20;8.80;;;;;;;18.31;79.57;99172.11;223686;182;144645;-67
2023/07/14 02:35:43;;;;;;;10.00;7.50;;;;;;;18.30;79.45;99179.32;223849;182;138431;-66
2023/07/14 02:41:14;;;;;;;10.20;6.30;;;;;;;18.26;79.26;99179.89;223749;182;137171;-67
2023/07/14 02:46:26;;;;;;;8.90;6.40;;;;;;;18.28;78.92;99182.35;223698;182;145850;-64
2023/07/14 02:51:30;;;;;;;10.10;6.80;;;;;;;18.33;78.82;99182.88;223763;183;140175;-67
2023/07/14 02:56:34;;;;;;;9.30;7.30;;;;;;;18.36;78.62;99188.67;223777;183;137354;-68
2023/07/14 03:01:38;;;;;;;9.90;7.60;;;;;;;18.38;78.46;99200.66;223789;182;145683;-65
2023/07/14 03:06:41;;;;;;;7.50;6.50;;;;;;;18.37;78.23;99208.48;223663;182;138499;-70
2023/07/14 03:11:48;;;;;;;12.60;7.00;;;;;;;18.32;78.31;99207.91;223694;182;138665;-65
2023/07/14 03:16:54;;;;;;;14.70;7.10;;;;;;;18.31;78.46;99208.85;223749;182;145750;-66
2023/07/14 03:21:58;;;;;;;10.80;7.50;;;;;;;18.32;78.46;99213.25;223687;182;138971;-65
2023/07/14 03:27:02;;;;;;;12.00;8.30;;;;;;;18.35;78.22;99217.27;223782;182;137497;-66
2023/07/14 03:32:06;;;;;;;10.50;7.40;;;;;;;18.36;78.28;99219.40;223704;182;145424;-68
2023/07/14 03:37:09;;;;;;;10.70;6.90;;;;;;;18.38;78.26;99221.70;223767;182;138814;-69
2023/07/14 03:42:12;;;;;;;13.00;7.00;;;;;;;18.47;78.03;99228.63;223683;182;139578;-70
2023/07/14 03:47:16;;;;;;;12.30;8.20;;;;;;;18.52;77.71;99230.45;223696;182;145553;-69
2023/07/14 03:52:21;;;;;;;;;;;;;;;18.52;77.55;99233.70;223778;182;138527;-67
2023/07/14 03:57:24;;;;;;;11.30;7.80;;;;;;;18.51;77.45;99234.52;223717;182;128932;-70
2023/07/14 04:02:27;;;;;;;10.30;7.10;;;;;;;18.56;77.56;99236.98;223704;182;144980;-64
2023/07/14 04:07:31;;;;;;;11.10;7.30;;;;;;;18.57;77.31;99237.55;223632;182;138551;-64
2023/07/14 04:12:34;;;;;;;11.70;7.30;;;;;;;18.55;77.33;99242.23;223711;182;138151;-65
2023/07/14 04:17:37;;;;;;;13.50;7.80;;;;;;;18.59;77.31;99244.38;223735;182;146902;-64
2023/07/14 04:22:41;;;;;;;12.90;7.60;;;;;;;18.61;77.26;99244.73;223626;182;138374;-65
2023/07/14 04:27:45;;;;;;;10.30;6.80;;;;;;;18.67;77.35;99250.50;223685;183;138224;-63
2023/07/14 04:32:50;;;;;;;10.40;7.20;;;;;;;18.75;76.98;99249.92;223603;183;145276;-65
2023/07/14 04:37:53;;;;;;;12.40;7.80;;;;;;;18.80;76.64;99250.36;223727;182;138405;-67
2023/07/14 04:42:58;;;;;;;12.90;8.30;;;;;;;18.80;76.57;99253.10;223726;182;136974;-63
2023/07/14 04:48:13;;;;;;;68.20;53.60;;;;;;;18.86;76.69;99255.05;223616;182;145450;-63
2023/07/14 04:53:17;;;;;;;13.90;8.50;;;;;;;18.90;76.47;99262.75;223676;182;138771;-63
2023/07/14 04:58:21;;;;;;;13.90;9.00;;;;;;;18.97;76.54;99269.27;223739;182;137686;-63
2023/07/14 05:03:25;;;;;;;75.70;66.90;;;;;;;19.07;76.43;99274.84;223685;183;145393;-64
2023/07/14 05:08:29;;;;;;;43.40;29.30;;;;;;;19.03;76.21;99271.80;223601;182;139147;-65
2023/07/14 05:13:33;;;;;;;15.30;9.40;;;;;;;19.03;76.39;99270.93;223730;182;137470;-64
2023/07/14 05:18:36;;;;;;;14.70;8.90;;;;;;;19.03;76.29;99267.52;223568;182;145797;-65
2023/07/14 05:23:39;;;;;;;16.80;9.80;;;;;;;19.14;76.20;99268.46;223664;182;139324;-65
2023/07/14 05:28:42;;;;;;;15.30;9.00;;;;;;;19.26;76.05;99269.13;223489;182;139326;-65
2023/07/14 05:33:50;;;;;;;16.20;9.50;;;;;;;19.32;75.87;99267.98;223527;182;145615;-63
2023/07/14 05:38:54;;;;;;;11.50;8.30;;;;;;;19.41;75.83;99266.03;223640;182;138893;-63
2023/07/14 05:43:57;;;;;;;16.20;9.00;;;;;;;19.52;75.63;99268.59;223651;182;137493;-63
2023/07/14 05:49:00;;;;;;;13.80;8.20;;;;;;;19.68;75.54;99270.00;223750;182;146172;-60
2023/07/14 05:54:05;;;;;;;125.60;110.20;;;;;;;19.85;75.12;99276.78;223645;182;139063;-62
2023/07/14 05:59:08;;;;;;;14.20;8.70;;;;;;;20.02;74.72;99276.97;223685;183;137209;-64
2023/07/14 06:04:11;;;;;;;11.10;8.00;;;;;;;20.07;74.34;99276.96;223644;182;145770;-64
2023/07/14 06:09:14;;;;;;;15.00;7.40;;;;;;;20.15;74.11;99279.66;223515;182;140844;-63
2023/07/14 06:14:17;;;;;;;11.10;7.10;;;;;;;20.25;73.75;99281.16;223755;183;137258;-65
2023/07/14 06:19:20;;;;;;;9.90;7.20;;;;;;;20.30;73.49;99284.98;223766;182;145119;-65
2023/07/14 06:24:24;;;;;;;13.70;7.50;;;;;;;20.39;73.35;99283.98;223666;182;138102;-64
2023/07/14 06:29:27;;;;;;;13.90;7.20;;;;;;;20.41;73.26;99285.54;223676;182;136617;-64
2023/07/14 06:34:30;;;;;;;8.60;6.10;;;;;;;20.50;73.03;99286.83;223749;182;145960;-64
2023/07/14 06:39:34;;;;;;;11.90;6.20;;;;;;;20.55;72.48;99289.74;223602;182;139427;-65
2023/07/14 06:44:40;;;;;;;12.90;6.80;;;;;;;20.66;72.05;99285.49;223726;182;137455;-65
2023/07/14 06:49:43;;;;;;;38.50;8.80;;;;;;;20.71;70.94;99284.63;223715;183;146012;-64
2023/07/14 06:54:46;;;;;;;133.10;80.80;;;;;;;20.77;71.06;99277.52;223704;182;138656;-64
2023/07/14 07:02:11;;;;;;;222.90;23.80;;;;;;;20.99;70.63;99272.36;221259;193;666628;-64
2023/07/14 07:07:15;;;;;;;19.10;9.60;;;;;;;21.11;70.53;99276.53;223715;183;137033;-63
2023/07/14 07:12:18;;;;;;;22.00;7.40;;;;;;;21.40;69.80;99278.27;223699;183;144000;-64
2023/07/14 07:17:21;;;;;;;15.30;5.70;;;;;;;21.62;68.67;99281.61;223660;184;138603;-65
2023/07/14 07:22:24;;;;;;;22.30;6.60;;;;;;;21.76;67.43;99279.94;223767;183;136440;-62
2023/07/14 07:27:28;;;;;;;50.50;9.30;;;;;;;21.85;66.21;99279.91;223712;182;143975;-66
2023/07/14 07:32:32;;;;;;;9.00;4.60;;;;;;;21.91;65.49;99274.42;223637;179;138880;-64
2023/07/14 07:37:35;;;;;;;11.90;5.30;;;;;;;21.99;65.03;99273.92;223822;183;137253;-66
2023/07/14 07:42:40;;;;;;;7.90;4.50;;;;;;;22.12;64.81;99276.73;223811;182;143630;-65
2023/07/14 08:02:08;;;;;;;40.20;11.50;;;;;;;22.47;61.77;99281.48;221935;192;666060;-63
2023/07/14 08:07:13;;;;;;;16.20;4.90;;;;;;;22.55;61.96;99286.46;223350;183;137364;-64
2023/07/14 08:12:16;;;;;;;12.80;4.80;;;;;;;22.63;61.57;99282.52;223728;183;143448;-64
2023/07/14 08:17:26;;;;;;;6.10;4.10;;;;;;;22.73;60.76;99282.27;223742;183;139042;-65
2023/07/14 08:22:30;;;;;;;6.60;3.60;;;;;;;22.83;60.68;99279.69;223703;179;137638;-64
2023/07/14 08:27:33;;;;;;;8.40;3.40;;;;;;;22.92;59.61;99281.71;223906;181;145030;-65
2023/07/14 08:32:36;;;;;;;7.80;3.70;;;;;;;23.01;59.63;99277.33;223708;181;138774;-65
2023/07/14 08:37:40;;;;;;;7.10;3.40;;;;;;;23.14;59.15;99278.59;223894;181;136505;-64
2023/07/14 08:43:12;;;;;;;4.90;3.60;;;;;;;23.23;58.33;99277.23;223807;181;145269;-64
2023/07/14 08:48:26;;;;;;;71.00;55.50;;;;;;;23.34;58.63;99277.17;223789;181;140419;-64
2023/07/14 08:53:32;;;;;;;13.80;5.80;;;;;;;23.42;57.54;99278.70;223844;181;137368;-64
2023/07/14 08:58:41;;;;;;;69.10;34.00;;;;;;;23.43;57.39;99274.94;223822;181;145651;-65
2023/07/14 09:03:48;;;;;;;62.50;11.50;;;;;;;23.54;57.30;99273.15;223544;182;138502;-63
2023/07/14 09:08:54;;;;;;;13.80;6.40;;;;;;;23.66;57.90;99269.34;223581;181;136559;-63
2023/07/14 09:14:23;;;;;;;10.70;3.80;;;;;;;23.78;56.39;99268.30;223659;181;146496;-63
2023/07/14 09:19:43;;;;;;;43.40;8.30;;;;;;;23.89;55.68;99263.84;223590;181;139396;-61
2023/07/14 09:25:29;;;;;;;31.20;26.40;;;;;;;23.96;56.09;99261.76;223660;181;137179;-62
2023/07/14 09:30:35;;;;;;;9.40;4.80;;;;;;;23.96;55.42;99260.98;223614;181;145416;-62
2023/07/14 09:35:40;;;;;;;115.00;102.70;;;;;;;24.01;54.43;99256.10;223684;182;138407;-62
2023/07/14 09:40:48;;;;;;;30.30;22.00;;;;;;;24.12;53.73;99250.08;223673;182;138525;-63
2023/07/14 09:45:55;;;;;;;11.40;4.70;;;;;;;24.28;54.56;99250.36;223662;181;145788;-63
2023/07/14 09:51:20;;;;;;;9.00;5.00;;;;;;;24.42;53.46;99250.10;223663;182;139338;-63
2023/07/14 09:56:29;;;;;;;5.40;3.10;;;;;;;24.57;52.41;99244.30;223669;182;136829;-64
2023/07/14 10:01:33;;;;;;;9.30;4.70;;;;;;;24.75;51.91;99241.90;223654;181;146762;-63
2023/07/14 10:06:36;;;;;;;10.70;3.70;;;;;;;24.92;52.07;99235.48;223599;181;139631;-63
2023/07/14 10:11:49;;;;;;;113.60;15.20;;;;;;;25.10;51.55;99229.91;223742;181;137180;-63
2023/07/14 10:16:58;;;;;;;6.20;3.50;;;;;;;25.30;51.23;99234.05;223739;181;146914;-64
2023/07/14 10:22:24;;;;;;;290.90;216.20;;;;;;;25.59;50.21;99229.94;223637;181;139970;-63
2023/07/14 10:27:32;;;;;;;115.50;15.00;;;;;;;25.55;48.00;99229.73;223548;181;138310;-64
2023/07/14 10:32:55;;;;;;;8.90;5.50;;;;;;;25.46;48.62;99232.13;223701;181;145900;-64
2023/07/14 10:38:26;;;;;;;146.60;19.80;;;;;;;25.44;49.19;99237.76;223630;181;152324;-64
2023/07/14 10:43:54;;;;;;;22.20;6.10;;;;;;;25.32;47.89;99234.23;223592;181;138190;-63
2023/07/14 10:49:10;;;;;;;14.90;10.90;;;;;;;25.09;46.96;99235.52;223688;181;145749;-63
2023/07/14 10:54:16;;;;;;;6.40;3.00;;;;;;;24.96;47.03;99228.81;223609;181;138301;-62
2023/07/14 10:59:34;;;;;;;172.20;17.60;;;;;;;24.88;46.61;99231.34;223668;181;137380;-63
2023/07/14 11:04:43;;;;;;;15.80;5.40;;;;;;;24.83;47.84;99231.91;223616;181;145647;-64
2023/07/14 11:09:47;;;;;;;461.60;386.30;;;;;;;24.82;48.83;99232.83;223667;181;138462;-61
2023/07/14 11:15:12;;;;;;;23.30;18.50;;;;;;;24.92;48.35;99231.90;223711;181;137369;-66
2023/07/14 11:20:57;;;;;;;12.10;4.60;;;;;;;25.08;48.10;99224.49;223851;180;145129;-64
2023/07/14 11:26:49;;;;;;;8.70;3.70;;;;;;;25.45;45.05;99220.04;223561;181;139346;-63
2023/07/14 11:31:58;;;;;;;144.20;15.50;;;;;;;25.87;45.94;99209.02;223489;181;136466;-61
2023/07/14 11:37:04;;;;;;;25.10;4.90;;;;;;;26.25;43.17;99206.95;223771;180;145105;-63
2023/07/14 11:42:23;;;;;;;90.50;50.50;;;;;;;26.62;43.38;99207.48;223650;181;138412;-63
2023/07/14 11:47:33;;;;;;;112.70;13.60;;;;;;;26.97;41.79;99194.91;223740;181;136971;-63
2023/07/14 11:52:38;;;;;;;3.60;2.40;;;;;;;27.28;39.06;99184.00;223732;181;145286;-62
2023/07/14 11:57:50;;;;;;;36.40;5.60;;;;;;;27.57;37.37;99183.52;223671;181;138227;-62
2023/07/14 12:02:56;;;;;;;6.10;2.00;;;;;;;27.82;35.78;99180.12;223750;181;137396;-63
2023/07/14 12:08:23;;;;;;;8.80;2.90;;;;;;;28.02;34.97;99177.13;223779;181;147105;-63
2023/07/14 12:13:32;;;;;;;10.90;3.20;;;;;;;28.21;36.22;99168.07;223733;181;138055;-63
2023/07/14 12:18:53;;;;;;;6.30;2.40;;;;;;;28.44;36.59;99161.27;223738;181;137588;-64
2023/07/14 12:24:01;;;;;;;38.00;3.70;;;;;;;28.75;35.20;99157.14;223362;181;145976;-65
2023/07/14 12:29:15;;;;;;;16.10;2.60;;;;;;;28.97;33.34;99157.47;223811;181;138926;-64
2023/07/14 12:34:20;;;;;;;181.00;134.90;;;;;;;29.22;34.59;99154.05;223743;181;137365;-63
2023/07/14 12:39:30;;;;;;;19.50;10.00;;;;;;;29.48;32.62;99152.83;223764;181;145326;-65
2023/07/14 12:44:35;;;;;;;17.10;3.40;;;;;;;29.71;32.96;99146.00;223713;181;138722;-65
2023/07/14 12:49:46;;;;;;;9.90;4.10;;;;;;;29.93;32.65;99135.48;223817;181;139839;-64
2023/07/14 12:54:51;;;;;;;10.30;3.60;;;;;;;30.07;33.90;99131.65;223649;181;146154;-63
2023/07/14 12:59:54;;;;;;;12.90;3.30;;;;;;;30.27;34.39;99123.20;223623;181;139034;-63
2023/07/14 13:04:57;;;;;;;5.60;2.20;;;;;;;30.24;34.63;99121.79;223670;181;138151;-64
2023/07/14 13:10:35;;;;;;;65.60;58.60;;;;;;;30.27;33.72;99117.16;223666;181;145312;-62
2023/07/14 13:15:39;;;;;;;87.00;74.30;;;;;;;30.28;33.14;99114.08;223684;181;138460;-65
2023/07/14 13:20:42;;;;;;;10.90;3.60;;;;;;;30.32;32.13;99103.40;223780;181;137197;-66
2023/07/14 13:25:54;;;;;;;151.30;134.00;;;;;;;30.30;30.71;99093.56;223679;181;146311;-63
2023/07/14 13:31:02;;;;;;;14.40;10.70;;;;;;;30.22;31.93;99092.83;223647;181;138271;-65
2023/07/14 13:36:08;;;;;;;5.40;2.60;;;;;;;30.05;32.20;99092.89;223675;181;137452;-62
2023/07/14 13:41:22;;;;;;;9.50;2.20;;;;;;;29.74;30.65;99086.38;223687;181;145794;-64
2023/07/14 13:46:28;;;;;;;6.80;2.90;;;;;;;29.49;32.11;99083.91;223647;181;138671;-63
2023/07/14 13:51:31;;;;;;;2.60;2.10;;;;;;;29.31;32.99;99083.05;223701;181;136974;-64
2023/07/14 13:56:34;;;;;;;5.60;2.40;;;;;;;29.23;33.25;99078.42;223692;181;146044;-66
2023/07/14 14:01:38;;;;;;;3.00;1.50;;;;;;;29.16;32.50;99071.90;223620;182;139913;-64
2023/07/14 14:06:42;;;;;;;5.10;2.20;;;;;;;28.95;31.30;99072.10;223691;181;137023;-67
2023/07/14 14:11:49;;;;;;;5.90;2.50;;;;;;;28.77;31.83;99077.30;223723;181;146320;-68
2023/07/14 14:16:54;;;;;;;3.40;1.80;;;;;;;28.76;31.76;99075.05;223856;181;138538;-70
2023/07/14 14:21:59;;;;;;;4.40;1.80;;;;;;;28.79;31.56;99072.30;223840;181;137670;-64
2023/07/14 14:27:03;;;;;;;41.80;37.30;;;;;;;28.72;32.13;99067.55;223609;181;145557;-65
2023/07/14 14:32:12;;;;;;;4.20;3.50;;;;;;;28.79;32.78;99065.19;223606;181;138058;-66
2023/07/14 14:37:16;;;;;;;5.10;2.30;;;;;;;28.92;31.48;99066.48;223694;181;137373;-61
2023/07/14 14:42:19;;;;;;;35.30;28.10;;;;;;;29.02;31.74;99063.50;223662;181;147461;-64
2023/07/14 14:47:22;;;;;;;8.00;4.60;;;;;;;28.96;31.83;99057.97;223757;181;138362;-67
2023/07/14 14:52:26;;;;;;;7.20;3.00;;;;;;;28.82;31.35;99057.05;223744;181;136870;-68
2023/07/14 14:57:31;;;;;;;11.30;8.80;;;;;;;28.73;32.28;99051.96;223667;181;144912;-66
2023/07/14 15:02:35;;;;;;;13.60;7.10;;;;;;;28.63;33.97;99051.14;223608;181;138975;-64
2023/07/14 15:07:38;;;;;;;13.00;9.90;;;;;;;28.50;33.94;99050.13;223719;180;136715;-67
2023/07/14 15:12:44;;;;;;;24.10;15.40;;;;;;;28.38;31.86;99048.07;223659;181;146189;-66
2023/07/14 15:17:47;;;;;;;12.60;11.20;;;;;;;28.19;33.20;99044.33;223771;181;139174;-65
2023/07/14 15:22:53;;;;;;;7.60;6.10;;;;;;;27.96;34.35;99044.18;223777;180;137791;-66
2023/07/14 15:27:56;;;;;;;5.80;3.10;;;;;;;27.84;34.37;99042.30;223818;181;145203;-67
2023/07/14 15:33:03;;;;;;;3.90;2.20;;;;;;;27.78;34.21;99043.52;223700;178;138297;-66
2023/07/14 15:38:08;;;;;;;4.90;2.10;;;;;;;27.68;33.38;99040.65;223821;181;139119;-63
2023/07/14 15:43:19;;;;;;;4.30;1.90;;;;;;;27.61;33.35;99040.64;223693;181;145919;-65
2023/07/14 15:48:35;;;;;;;5.40;2.00;;;;;;;27.56;34.56;99042.67;223721;181;138725;-64
2023/07/14 15:53:46;;;;;;;67.70;58.90;;;;;;;27.51;35.01;99040.82;223850;180;136626;-68
2023/07/14 15:58:50;;;;;;;600.40;529.00;;;;;;;27.48;35.59;99039.33;223801;181;145325;-64
2023/07/14 16:03:54;;;;;;;26.40;20.80;;;;;;;27.44;35.77;99044.14;223773;181;138330;-67
2023/07/14 16:08:59;;;;;;;8.60;6.00;;;;;;;27.39;35.42;99043.99;223783;181;137471;-64
2023/07/14 16:14:07;;;;;;;6.40;2.40;;;;;;;27.34;35.65;99042.98;223865;180;146283;-70
2023/07/14 16:19:11;;;;;;;4.90;2.50;;;;;;;27.30;35.02;99045.31;223786;181;138577;-69
2023/07/14 16:24:19;;;;;;;6.40;3.50;;;;;;;27.27;36.16;99041.20;223810;181;138412;-69
2023/07/14 16:29:23;;;;;;;8.90;3.00;;;;;;;27.24;36.69;99036.87;223855;181;145360;-67
2023/07/14 16:34:26;;;;;;;5.20;3.30;;;;;;;27.19;36.96;99035.95;223675;181;138096;-69
2023/07/14 16:39:33;;;;;;;6.20;2.70;;;;;;;27.12;37.14;99032.54;223688;181;137591;-62
2023/07/14 16:44:36;;;;;;;7.80;6.20;;;;;;;26.95;36.95;99033.94;223810;181;147021;-70
2023/07/14 16:49:39;;;;;;;103.00;87.00;;;;;;;26.89;37.01;99023.69;223870;181;139560;-70
2023/07/14 16:54:43;;;;;;;15.30;13.80;;;;;;;26.92;37.54;99021.18;223655;180;140546;-68
2023/07/14 17:02:19;;;;;;;7.70;5.40;;;;;;;26.98;37.84;99023.61;221688;193;665953;-62
2023/07/14 17:07:22;;;;;;;6.00;3.60;;;;;;;26.96;38.12;99021.67;223646;183;137395;-68
2023/07/14 17:12:26;;;;;;;15.30;3.50;;;;;;;26.93;38.17;99021.52;223587;183;143960;-67
2023/07/14 17:17:29;;;;;;;9.30;3.10;;;;;;;26.79;38.75;99024.97;223618;183;138447;-70
2023/07/14 17:22:35;;;;;;;6.20;2.70;;;;;;;26.70;38.49;99027.68;223603;183;136533;-71
2023/07/14 17:27:42;;;;;;;5.90;2.90;;;;;;;26.66;38.37;99029.04;223544;183;143431;-70
2023/07/14 17:32:53;;;;;;;105.50;88.70;;;;;;;26.57;39.15;99027.38;222902;183;139996;-69
2023/07/14 17:37:56;;;;;;;14.30;5.60;;;;;;;26.53;39.56;99028.19;223617;183;137887;-73
2023/07/14 17:43:04;;;;;;;;;;;;;;;26.48;38.70;99035.37;223667;184;143817;-68
2023/07/14 17:48:15;;;;;;;8.70;3.20;;;;;;;26.44;39.04;99031.16;223722;184;138451;-71
2023/07/14 17:53:20;;;;;;;7.80;3.20;;;;;;;26.41;39.30;99030.63;223604;183;136706;-67
2023/07/14 18:02:35;;;;;;;11.10;3.40;;;;;;;26.30;39.89;99030.20;221272;193;677952;-67
2023/07/14 18:07:47;;;;;;;11.70;3.70;;;;;;;26.16;40.07;99031.25;223456;184;136359;-68
2023/07/14 18:12:51;;;;;;;9.60;3.30;;;;;;;26.02;40.95;99034.60;223487;184;143311;-66
2023/07/14 18:17:57;;;;;;;85.00;57.60;;;;;;;25.88;40.88;99038.73;223526;185;138297;-68
2023/07/14 18:23:00;;;;;;;22.90;15.70;;;;;;;25.86;40.77;99039.33;223530;184;139422;-64
2023/07/14 18:28:13;;;;;;;7.30;3.30;;;;;;;25.78;40.73;99044.26;223610;183;143531;-68
2023/07/14 18:33:19;;;;;;;9.10;4.60;;;;;;;25.74;40.50;99042.53;223632;183;138196;-63
2023/07/14 18:38:27;;;;;;;12.00;5.90;;;;;;;25.67;41.17;99044.35;223653;183;137067;-68
2023/07/14 18:43:30;;;;;;;8.10;2.90;;;;;;;25.57;41.84;99050.93;223745;182;144308;-69
2023/07/14 18:48:34;;;;;;;6.80;3.10;;;;;;;25.48;42.66;99055.48;223749;182;138397;-64
2023/07/14 18:53:38;;;;;;;;;;;;;;;25.41;42.90;99057.44;223765;182;136541;-64
2023/07/14 18:58:42;;;;;;;6.10;2.70;;;;;;;25.33;43.08;99065.13;223720;181;146165;-69
2023/07/14 19:03:48;;;;;;;6.70;3.20;;;;;;;25.20;43.12;99066.39;223641;182;140746;-65
2023/07/14 19:09:15;;;;;;;8.50;3.40;;;;;;;25.07;43.96;99067.25;223693;182;138230;-64
2023/07/14 19:14:18;;;;;;;10.90;3.40;;;;;;;24.92;44.95;99073.64;223720;182;145087;-65
2023/07/14 19:19:22;;;;;;;10.80;3.90;;;;;;;24.76;45.36;99074.45;223644;182;139192;-65
2023/07/14 19:24:26;;;;;;;12.30;4.50;;;;;;;24.61;46.17;99072.83;223647;182;137843;-67
2023/07/14 19:29:30;;;;;;;15.30;4.10;;;;;;;24.48;46.79;99071.83;223735;182;145377;-66
2023/07/14 19:34:33;;;;;;;12.30;4.30;;;;;;;24.36;47.01;99069.98;223640;182;140021;-68
2023/07/14 19:39:37;;;;;;;12.50;4.60;;;;;;;24.22;47.50;99075.58;223534;182;137645;-65
2023/07/14 19:44:41;;;;;;;9.70;4.20;;;;;;;24.10;48.50;99072.17;223697;182;145367;-67
2023/07/14 19:49:44;;;;;;;11.50;4.70;;;;;;;23.96;49.56;99069.98;223629;182;138359;-69
2023/07/14 19:54:49;;;;;;;13.60;5.00;;;;;;;23.85;50.31;99067.48;223699;182;137064;-65
2023/07/14 19:59:53;;;;;;;17.60;5.30;;;;;;;23.73;51.39;99069.41;223714;182;145243;-66
2023/07/14 20:04:56;;;;;;;14.50;5.00;;;;;;;23.63;52.17;99066.17;223628;182;138423;-65
2023/07/14 20:09:59;;;;;;;11.90;4.70;;;;;;;23.50;52.94;99067.54;223523;182;137531;-65
2023/07/14 20:15:03;;;;;;;10.70;4.90;;;;;;;23.37;54.02;99065.73;223685;182;146054;-67
2023/07/14 20:20:13;;;;;;;13.10;5.20;;;;;;;23.23;54.17;99067.15;223670;182;139018;-69
2023/07/14 20:25:20;;;;;;;9.70;4.90;;;;;;;23.14;54.92;99067.45;223639;182;137082;-67
2023/07/14 20:30:23;;;;;;;11.50;5.30;;;;;;;23.06;55.07;99059.66;223455;182;145112;-68
2023/07/14 20:35:26;;;;;;;13.00;4.80;;;;;;;22.98;55.46;99059.39;223579;182;138733;-66
2023/07/14 20:40:29;;;;;;;10.90;5.10;;;;;;;22.88;56.18;99054.67;223717;182;137984;-65
2023/07/14 20:45:32;;;;;;;7.80;4.90;;;;;;;22.79;56.73;99055.67;223617;182;144640;-67
2023/07/14 20:50:37;;;;;;;10.30;5.00;;;;;;;22.70;57.40;99057.04;223616;182;140077;-67
2023/07/14 20:55:41;;;;;;;9.30;4.70;;;;;;;22.61;57.90;99054.83;223644;182;137265;-67
2023/07/14 21:00:56;;;;;;;8.50;4.50;;;;;;;22.54;57.95;99058.13;223658;182;146237;-68
2023/07/14 21:06:01;;;;;;;15.10;5.20;;;;;;;22.45;58.25;99062.16;223613;182;139603;-65
2023/07/14 21:11:07;;;;;;;13.80;4.50;;;;;;;22.35;58.40;99065.52;223698;182;137496;-65
2023/07/14 21:16:15;;;;;;;10.50;5.00;;;;;;;22.27;58.53;99062.34;223781;182;145544;-67
2023/07/14 21:21:20;;;;;;;;;;;;;;;22.18;58.83;99064.28;223751;182;138924;-64
2023/07/14 21:26:26;;;;;;;;;;;;;;;22.09;59.21;99063.65;223823;182;129227;-66
2023/07/14 21:31:56;;;;;;;11.90;4.90;;;;;;;21.98;59.77;99061.91;223712;183;145071;-64
2023/07/14 21:36:59;;;;;;;12.50;4.80;;;;;;;21.90;59.82;99062.60;223720;182;140032;-66
2023/07/14 21:42:10;;;;;;;8.80;4.70;;;;;;;21.82;60.25;99062.80;223684;182;138801;-68
2023/07/14 21:47:13;;;;;;;9.70;4.70;;;;;;;21.76;60.18;99061.27;223791;182;145104;-70
2023/07/14 21:52:21;;;;;;;8.70;5.30;;;;;;;21.69;60.56;99062.13;223660;182;140870;-71
2023/07/14 21:57:25;;;;;;;9.50;5.30;;;;;;;21.64;60.95;99060.26;223751;182;137120;-68
2023/07/14 22:02:28;;;;;;;10.50;5.40;;;;;;;21.58;61.03;99063.59;223703;183;145592;-65
2023/07/14 22:07:31;;;;;;;11.20;5.30;;;;;;;21.53;61.29;99060.73;223654;182;138511;-66
2023/07/14 22:12:36;;;;;;;9.50;4.90;;;;;;;21.46;61.43;99055.05;223650;182;136524;-70
2023/07/14 22:17:40;;;;;;;9.70;4.70;;;;;;;21.40;61.66;99053.34;223806;182;145125;-69
2023/07/14 22:22:45;;;;;;;9.20;5.10;;;;;;;21.35;61.63;99052.13;223726;182;138365;-66
2023/07/14 22:27:48;;;;;;;12.00;5.70;;;;;;;21.29;61.87;99056.38;223626;182;137640;-69
2023/07/14 22:32:52;;;;;;;7.90;5.00;;;;;;;21.25;61.93;99060.02;223661;182;145288;-69
2023/07/14 22:37:56;;;;;;;9.40;5.30;;;;;;;21.17;62.27;99057.79;223698;183;138182;-69
2023/07/14 22:43:01;;;;;;;7.80;5.10;;;;;;;21.10;62.41;99058.16;223593;182;137601;-68
2023/07/14 22:48:11;;;;;;;9.40;4.70;;;;;;;21.03;62.70;99059.11;223704;182;145281;-65
2023/07/14 22:53:17;;;;;;;7.70;4.70;;;;;;;20.99;62.72;99055.03;223785;182;140422;-66
2023/07/14 22:58:23;;;;;;;10.80;4.80;;;;;;;20.99;63.00;99049.21;223593;182;138164;-70
2023/07/14 23:03:33;;;;;;;9.00;4.90;;;;;;;21.00;63.03;99046.25;223712;182;146350;-69
2023/07/14 23:08:37;;;;;;;11.60;4.60;;;;;;;20.97;63.18;99044.73;223620;182;140884;-66
2023/07/14 23:13:40;;;;;;;9.40;4.30;;;;;;;20.91;63.34;99047.73;223626;183;137462;-70
2023/07/14 23:18:52;;;;;;;10.80;4.60;;;;;;;20.84;63.23;99049.77;223757;179;145412;-69
2023/07/14 23:23:59;;;;;;;10.30;4.80;;;;;;;20.75;63.32;99050.98;223745;182;138559;-65
2023/07/14 23:29:04;;;;;;;6.60;4.60;;;;;;;20.67;63.54;99049.31;223775;182;136620;-66
2023/07/14 23:34:12;;;;;;;10.00;4.90;;;;;;;20.58;63.73;99053.88;223765;182;145311;-69
2023/07/14 23:39:15;;;;;;;9.90;4.70;;;;;;;20.50;64.04;99050.36;223604;182;139019;-68
2023/07/14 23:44:19;;;;;;;10.40;5.00;;;;;;;20.41;64.12;99053.55;223600;182;138199;-65
2023/07/14 23:49:22;;;;;;;7.70;4.90;;;;;;;20.33;64.34;99048.83;223517;182;147644;-69
2023/07/14 23:54:26;;;;;;;10.10;5.10;;;;;;;20.25;64.45;99047.71;223646;182;139540;-67
2023/07/14 23:59:30;;;;;;;13.50;5.20;;;;;;;20.18;64.89;99047.02;223666;182;137386;-70
